createdAt,value
2018-05-17T00:00:32.230Z,9.55
2018-05-17T00:01:41.701Z,9.62
2018-05-17T00:02:51.708Z,9.59
2018-05-17T00:04:01.716Z,9.66
2018-05-17T00:05:10.921Z,9.51
2018-05-17T00:06:20.929Z,9.64
2018-05-17T00:07:30.943Z,9.62
2018-05-17T00:08:40.426Z,9.56
2018-05-17T00:09:50.450Z,9.59
2018-05-17T00:11:00.453Z,9.59
2018-05-17T00:12:10.197Z,9.54
2018-05-17T00:13:20.225Z,9.62
2018-05-17T00:14:30.320Z,9.52
2018-05-17T00:15:40.330Z,9.54
2018-05-17T00:16:50.339Z,9.52
2018-05-17T00:17:59.817Z,9.52
2018-05-17T00:19:09.832Z,9.42
2018-05-17T00:20:19.570Z,9.39
2018-05-17T00:21:29.313Z,9.39
2018-05-17T00:22:39.325Z,9.34
2018-05-17T00:23:49.063Z,9.34
2018-05-17T00:24:59.080Z,9.39
2018-05-17T00:26:08.826Z,9.33
2018-05-17T00:27:18.571Z,9.26
2018-05-17T00:28:28.326Z,9.37
2018-05-17T00:29:38.351Z,9.39
2018-05-17T00:30:48.364Z,9.45
2018-05-17T00:31:58.766Z,9.33
2018-05-17T00:33:08.513Z,9.33
2018-05-17T00:34:18.523Z,9.33
2018-05-17T00:35:28.534Z,9.31
2018-05-17T00:36:38.008Z,9.31
2018-05-17T00:37:47.759Z,9.42
2018-05-17T00:38:57.774Z,9.36
2018-05-17T00:40:07.517Z,9.42
2018-05-17T00:41:17.255Z,9.45
2018-05-17T00:42:27.281Z,9.4
2018-05-17T00:43:37.028Z,9.49
2018-05-17T00:44:46.498Z,9.51
2018-05-17T00:45:56.515Z,9.45
2018-05-17T00:47:06.259Z,9.51
2018-05-17T00:48:15.999Z,9.51
2018-05-17T00:49:26.068Z,9.44
2018-05-17T00:50:35.809Z,9.48
2018-05-17T00:51:45.869Z,9.42
2018-05-17T00:52:55.880Z,9.55
2018-05-17T00:54:05.624Z,9.45
2018-05-17T00:55:15.372Z,9.49
2018-05-17T00:56:25.384Z,9.44
2018-05-17T00:57:35.127Z,9.45
2018-05-17T00:58:44.605Z,9.4
2018-05-17T00:59:54.613Z,9.45
2018-05-17T01:01:04.463Z,9.49
2018-05-17T01:02:14.479Z,9.51
2018-05-17T01:03:24.500Z,9.58
2018-05-17T01:04:34.506Z,9.55
2018-05-17T01:05:44.512Z,9.59
2018-05-17T01:06:54.529Z,9.58
2018-05-17T01:08:04.547Z,9.52
2018-05-17T01:09:14.297Z,9.45
2018-05-17T01:10:23.579Z,9.47
2018-05-17T01:11:33.324Z,9.44
2018-05-17T01:12:42.798Z,9.4
2018-05-17T01:13:52.532Z,9.4
2018-05-17T01:15:02.271Z,9.4
2018-05-17T01:16:11.750Z,9.34
2018-05-17T01:17:21.755Z,9.34
2018-05-17T01:18:31.505Z,9.44
2018-05-17T01:19:41.517Z,9.44
2018-05-17T01:20:51.534Z,9.42
2018-05-17T01:22:01.540Z,9.49
2018-05-17T01:23:11.013Z,9.45
2018-05-17T01:24:20.754Z,9.45
2018-05-17T01:25:30.767Z,9.48
2018-05-17T01:26:40.516Z,9.47
2018-05-17T01:27:50.531Z,9.47
2018-05-17T01:29:00.540Z,9.42
2018-05-17T01:30:10.569Z,9.4
2018-05-17T01:31:20.573Z,9.3
2018-05-17T01:32:30.581Z,9.33
2018-05-17T01:33:40.321Z,9.34
2018-05-17T01:34:50.328Z,9.27
2018-05-17T01:35:59.851Z,9.31
2018-05-17T01:37:09.062Z,9.29
2018-05-17T01:38:19.279Z,9.36
2018-05-17T01:39:28.762Z,9.27
2018-05-17T01:40:38.502Z,9.29
2018-05-17T01:41:48.514Z,9.29
2018-05-17T01:42:58.521Z,9.3
2018-05-17T01:44:08.537Z,9.37
2018-05-17T01:45:18.545Z,9.34
2018-05-17T01:46:28.553Z,9.36
2018-05-17T01:47:38.566Z,9.37
2018-05-17T01:48:48.651Z,9.37
2018-05-17T01:49:58.133Z,9.36
2018-05-17T01:51:07.630Z,9.36
2018-05-17T01:52:17.459Z,9.4
2018-05-17T01:53:27.468Z,9.42
2018-05-17T01:54:37.212Z,9.42
2018-05-17T01:55:46.958Z,9.47
2018-05-17T01:56:56.961Z,9.45
2018-05-17T01:58:06.707Z,9.47
2018-05-17T01:59:16.769Z,9.45
2018-05-17T02:00:26.523Z,9.47
2018-05-17T02:01:36.264Z,9.48
2018-05-17T02:02:45.759Z,9.52
2018-05-17T02:03:55.507Z,9.58
2018-05-17T02:05:05.605Z,9.58
2018-05-17T02:06:15.369Z,9.58
2018-05-17T02:07:24.574Z,9.58
2018-05-17T02:08:34.309Z,9.59
2018-05-17T02:09:43.787Z,9.56
2018-05-17T02:10:53.879Z,9.62
2018-05-17T02:12:03.629Z,9.52
2018-05-17T02:13:13.108Z,9.56
2018-05-17T02:14:22.847Z,9.58
2018-05-17T02:15:32.590Z,9.56
2018-05-17T02:16:42.336Z,9.59
2018-05-17T02:17:51.814Z,9.69
2018-05-17T02:19:01.823Z,9.59
2018-05-17T02:20:11.923Z,9.55
2018-05-17T02:21:21.930Z,9.58
2018-05-17T02:22:31.769Z,9.59
2018-05-17T02:23:41.508Z,9.55
2018-05-17T02:24:50.993Z,9.64
2018-05-17T02:26:01.008Z,9.52
2018-05-17T02:27:10.485Z,9.56
2018-05-17T02:28:20.227Z,9.56
2018-05-17T02:29:30.329Z,9.55
2018-05-17T02:30:40.359Z,9.56
2018-05-17T02:31:50.100Z,9.67
2018-05-17T02:33:00.127Z,9.64
2018-05-17T02:34:09.913Z,9.64
2018-05-17T02:35:19.660Z,9.62
2018-05-17T02:36:29.424Z,9.64
2018-05-17T02:37:39.162Z,9.59
2018-05-17T02:38:49.187Z,9.66
2018-05-17T02:39:59.208Z,9.67
2018-05-17T02:41:09.239Z,9.67
2018-05-17T02:42:19.368Z,9.69
2018-05-17T02:43:29.381Z,9.62
2018-05-17T02:44:39.390Z,9.69
2018-05-17T02:45:49.409Z,9.63
2018-05-17T02:46:59.185Z,9.64
2018-05-17T02:48:09.207Z,9.66
2018-05-17T02:49:19.373Z,9.56
2018-05-17T02:50:29.120Z,9.55
2018-05-17T02:51:39.230Z,9.64
2018-05-17T02:52:49.262Z,9.56
2018-05-17T02:53:59.302Z,9.62
2018-05-17T02:55:08.787Z,9.58
2018-05-17T02:56:18.543Z,9.62
2018-05-17T02:57:28.561Z,9.52
2018-05-17T02:58:38.052Z,9.62
2018-05-17T02:59:47.802Z,9.63
2018-05-17T03:03:30.158Z,9.59
2018-05-17T03:04:39.926Z,9.63
2018-05-17T03:05:49.675Z,9.56
2018-05-17T03:06:59.158Z,9.58
2018-05-17T03:08:09.170Z,9.56
2018-05-17T03:09:19.180Z,9.58
2018-05-17T03:10:28.659Z,9.56
2018-05-17T03:11:38.672Z,9.67
2018-05-17T03:12:48.700Z,9.67
2018-05-17T03:13:58.173Z,9.63
2018-05-17T03:15:07.923Z,9.7
2018-05-17T03:16:17.944Z,9.64
2018-05-17T03:17:27.952Z,9.67
2018-05-17T03:18:37.690Z,9.63
2018-05-17T03:19:47.435Z,9.63
2018-05-17T03:20:56.904Z,9.64
2018-05-17T03:22:06.384Z,9.64
2018-05-17T03:23:16.392Z,9.62
2018-05-17T03:24:26.402Z,9.64
2018-05-17T03:25:35.876Z,9.69
2018-05-17T03:26:45.374Z,9.59
2018-05-17T03:27:55.124Z,9.63
2018-05-17T03:29:04.605Z,9.56
2018-05-17T03:30:14.350Z,9.63
2018-05-17T03:31:24.107Z,9.64
2018-05-17T03:32:34.222Z,9.62
2018-05-17T03:33:44.233Z,9.58
2018-05-17T03:34:54.246Z,9.56
2018-05-17T03:36:03.457Z,9.59
2018-05-17T03:37:13.479Z,9.44
2018-05-17T03:38:23.500Z,9.44
2018-05-17T03:39:33.514Z,9.37
2018-05-17T03:40:43.527Z,9.24
2018-05-17T03:41:53.545Z,9.29
2018-05-17T03:43:03.287Z,9.08
2018-05-17T03:44:12.767Z,8.97
2018-05-17T03:45:22.519Z,8.95
2018-05-17T03:46:32.543Z,8.86
2018-05-17T03:47:42.284Z,8.92
2018-05-17T03:48:51.755Z,8.78
2018-05-17T03:50:01.772Z,8.78
2018-05-17T03:51:10.714Z,8.71
2018-05-17T03:52:20.465Z,8.72
2018-05-17T03:53:30.483Z,8.45
2018-05-17T03:54:40.503Z,8.42
2018-05-17T03:55:50.247Z,8.57
2018-05-17T03:56:59.724Z,8.52
2018-05-17T03:58:09.468Z,8.45
2018-05-17T03:59:19.484Z,8.24
2018-05-17T04:00:29.490Z,8.13
2018-05-17T04:01:39.500Z,8.09
2018-05-17T04:02:49.239Z,8.01
2018-05-17T04:03:59.251Z,7.95
2018-05-17T04:05:09.404Z,7.9
2018-05-17T04:06:19.656Z,7.7
2018-05-17T04:07:29.449Z,7.87
2018-05-17T04:08:39.676Z,7.74
2018-05-17T04:09:49.223Z,7.91
2018-05-17T04:10:59.234Z,7.87
2018-05-17T04:12:08.712Z,7.8
2018-05-17T04:13:18.728Z,7.74
2018-05-17T04:14:28.475Z,7.74
2018-05-17T04:15:38.481Z,7.67
2018-05-17T04:16:48.226Z,7.81
2018-05-17T04:17:57.696Z,7.72
2018-05-17T04:19:07.709Z,7.81
2018-05-17T04:20:17.447Z,7.78
2018-05-17T04:21:27.186Z,7.8
2018-05-17T04:22:36.928Z,7.75
2018-05-17T04:23:46.401Z,7.7
2018-05-17T04:24:56.146Z,7.7
2018-05-17T04:26:05.619Z,7.67
2018-05-17T04:27:15.359Z,7.62
2018-05-17T04:28:25.093Z,7.61
2018-05-17T04:29:34.565Z,7.7
2018-05-17T04:30:44.305Z,7.67
2018-05-17T04:31:53.778Z,7.64
2018-05-17T04:33:03.795Z,7.62
2018-05-17T04:34:13.825Z,7.55
2018-05-17T04:35:23.300Z,7.62
2018-05-17T04:36:32.777Z,7.66
2018-05-17T04:37:42.783Z,7.55
2018-05-17T04:38:52.534Z,7.48
2018-05-17T04:40:02.543Z,7.59
2018-05-17T04:41:12.024Z,7.59
2018-05-17T04:42:22.045Z,7.69
2018-05-17T04:43:32.059Z,7.66
2018-05-17T04:44:41.537Z,7.72
2018-05-17T04:45:51.544Z,7.74
2018-05-17T04:47:01.599Z,7.78
2018-05-17T04:48:11.628Z,7.77
2018-05-17T04:49:21.635Z,7.87
2018-05-17T04:50:31.108Z,7.85
2018-05-17T04:51:41.117Z,7.91
2018-05-17T04:52:50.589Z,7.9
2018-05-17T04:54:00.602Z,7.93
2018-05-17T04:55:10.624Z,7.98
2018-05-17T04:56:20.631Z,7.98
2018-05-17T04:57:30.640Z,7.98
2018-05-17T04:58:40.655Z,7.88
2018-05-17T04:59:50.685Z,7.88
2018-05-17T05:01:00.425Z,7.95
2018-05-17T05:02:10.166Z,7.98
2018-05-17T05:03:20.173Z,7.99
2018-05-17T05:04:30.178Z,7.98
2018-05-17T05:05:40.183Z,7.96
2018-05-17T05:06:50.192Z,7.91
2018-05-17T05:07:59.933Z,7.98
2018-05-17T05:09:09.940Z,7.95
2018-05-17T05:10:19.691Z,7.95
2018-05-17T05:11:29.429Z,7.91
2018-05-17T05:12:39.445Z,7.95
2018-05-17T05:13:49.452Z,7.98
2018-05-17T05:14:59.268Z,7.98
2018-05-17T05:16:08.212Z,7.88
2018-05-17T05:17:17.956Z,7.93
2018-05-17T05:18:27.967Z,8.02
2018-05-17T05:19:37.978Z,7.96
2018-05-17T05:20:47.990Z,7.88
2018-05-17T05:21:57.472Z,7.91
2018-05-17T05:23:06.684Z,7.93
2018-05-17T05:24:16.424Z,8.01
2018-05-17T05:25:26.533Z,8.05
2018-05-17T05:26:36.546Z,8.06
2018-05-17T05:27:46.292Z,8.17
2018-05-17T05:28:55.861Z,8.08
2018-05-17T05:30:05.332Z,8.23
2018-05-17T05:31:15.082Z,8.24
2018-05-17T05:32:24.819Z,8.24
2018-05-17T05:33:34.560Z,8.06
2018-05-17T05:34:44.565Z,8.09
2018-05-17T05:35:54.565Z,8.01
2018-05-17T05:37:04.572Z,7.99
2018-05-17T05:38:14.580Z,7.98
2018-05-17T05:39:24.595Z,8.03
2018-05-17T05:40:34.600Z,7.99
2018-05-17T05:41:44.339Z,8.09
2018-05-17T05:42:54.359Z,8.06
2018-05-17T05:44:03.842Z,8.05
2018-05-17T05:45:13.585Z,8.06
2018-05-17T05:46:23.329Z,7.98
2018-05-17T05:47:33.341Z,8.09
2018-05-17T05:48:43.353Z,8.06
2018-05-17T05:49:52.822Z,8.08
2018-05-17T05:51:02.584Z,8.09
2018-05-17T05:52:12.595Z,7.91
2018-05-17T05:53:22.332Z,8.03
2018-05-17T05:54:32.346Z,7.93
2018-05-17T05:55:42.444Z,8.08
2018-05-17T05:56:52.186Z,8.21
2018-05-17T05:58:01.658Z,8.16
2018-05-17T05:59:11.678Z,8.13
2018-05-17T06:00:21.423Z,8.08
2018-05-17T06:01:31.532Z,8.01
2018-05-17T06:02:41.545Z,8.05
2018-05-17T06:03:51.549Z,7.93
2018-05-17T06:05:01.553Z,7.93
2018-05-17T06:06:11.317Z,7.99
2018-05-17T06:07:20.792Z,7.95
2018-05-17T06:08:30.968Z,7.88
2018-05-17T06:09:40.489Z,7.93
2018-05-17T06:10:49.965Z,7.88
2018-05-17T06:11:59.715Z,7.83
2018-05-17T06:13:09.734Z,7.75
2018-05-17T06:14:19.471Z,7.83
2018-05-17T06:15:29.474Z,7.7
2018-05-17T06:16:39.494Z,7.85
2018-05-17T06:17:49.234Z,7.96
2018-05-17T06:18:58.983Z,7.93
2018-05-17T06:20:08.993Z,7.93
2018-05-17T06:21:19.005Z,7.88
2018-05-17T06:22:29.021Z,7.75
2018-05-17T06:23:38.763Z,7.75
2018-05-17T06:24:48.548Z,7.83
2018-05-17T06:25:58.556Z,7.83
2018-05-17T06:27:08.037Z,7.8
2018-05-17T06:28:18.110Z,7.85
2018-05-17T06:29:28.121Z,7.81
2018-05-17T06:30:37.860Z,7.93
2018-05-17T06:31:47.871Z,7.91
2018-05-17T06:32:57.892Z,8.02
2018-05-17T06:34:07.641Z,8.06
2018-05-17T06:35:17.656Z,8.06
2018-05-17T06:36:27.663Z,8.18
2018-05-17T06:37:37.577Z,8.24
2018-05-17T06:38:47.674Z,8.28
2018-05-17T06:39:57.680Z,8.23
2018-05-17T06:41:07.689Z,8.28
2018-05-17T06:42:17.167Z,8.21
2018-05-17T06:43:26.906Z,8.13
2018-05-17T06:44:36.381Z,8.24
2018-05-17T06:45:45.855Z,8.32
2018-05-17T06:46:55.871Z,8.21
2018-05-17T06:48:05.349Z,8.18
2018-05-17T06:49:15.085Z,8.18
2018-05-17T06:50:24.825Z,8.21
2018-05-17T06:51:34.835Z,8.35
2018-05-17T06:52:44.580Z,8.39
2018-05-17T06:53:54.325Z,8.44
2018-05-17T06:55:04.081Z,8.42
2018-05-17T06:56:14.094Z,8.57
2018-05-17T06:57:24.099Z,8.72
2018-05-17T06:58:34.110Z,8.74
2018-05-17T06:59:43.852Z,8.9
2018-05-17T07:00:53.736Z,8.9
2018-05-17T07:02:03.965Z,8.96
2018-05-17T07:03:13.705Z,9.05
2018-05-17T07:04:23.458Z,9.05
2018-05-17T07:05:32.974Z,9.12
2018-05-17T07:06:42.720Z,9.29
2018-05-17T07:07:52.736Z,9.33
2018-05-17T07:09:02.478Z,9.22
2018-05-17T07:10:12.494Z,9.34
2018-05-17T07:11:22.509Z,9.47
2018-05-17T07:12:32.544Z,9.45
2018-05-17T07:13:42.290Z,9.33
2018-05-17T07:14:52.308Z,9.39
2018-05-17T07:16:02.332Z,9.45
2018-05-17T07:17:12.343Z,9.47
2018-05-17T07:18:23.141Z,9.33
2018-05-17T07:19:33.045Z,9.33
2018-05-17T07:20:43.054Z,9.33
2018-05-17T07:21:52.813Z,9.45
2018-05-17T07:23:02.288Z,9.54
2018-05-17T07:24:12.207Z,9.64
2018-05-17T07:25:22.379Z,9.63
2018-05-17T07:26:32.118Z,9.88
2018-05-17T07:27:41.859Z,9.94
2018-05-17T07:28:51.606Z,9.84
2018-05-17T07:30:00.549Z,10.02
2018-05-17T07:31:10.605Z,10.1
2018-05-17T07:32:20.389Z,10.25
2018-05-17T07:33:29.867Z,10.42
2018-05-17T07:34:39.886Z,10.43
2018-05-17T07:35:49.366Z,10.62
2018-05-17T07:36:59.384Z,10.64
2018-05-17T07:38:08.873Z,10.72
2018-05-17T07:39:19.107Z,10.58
2018-05-17T07:40:28.994Z,10.76
2018-05-17T07:41:38.751Z,10.84
2018-05-17T07:42:48.495Z,10.94
2018-05-17T07:43:58.503Z,10.84
2018-05-17T07:45:08.254Z,11.08
2018-05-17T07:46:18.272Z,11
2018-05-17T07:47:28.018Z,11.15
2018-05-17T07:48:38.030Z,11.26
2018-05-17T07:49:47.771Z,11.4
2018-05-17T07:50:57.529Z,11.52
2018-05-17T07:52:07.483Z,11.58
2018-05-17T07:53:17.588Z,11.67
2018-05-17T07:54:27.073Z,11.73
2018-05-17T07:55:37.258Z,11.88
2018-05-17T07:56:47.604Z,11.89
2018-05-17T07:57:57.086Z,11.88
2018-05-17T07:59:06.843Z,11.99
2018-05-17T08:00:16.863Z,11.99
2018-05-17T08:01:26.882Z,12.07
2018-05-17T08:02:36.894Z,12.11
2018-05-17T08:03:46.636Z,12.2
2018-05-17T08:04:56.388Z,12.21
2018-05-17T08:06:05.594Z,12.21
2018-05-17T08:07:15.334Z,12.3
2018-05-17T08:08:25.079Z,12.35
2018-05-17T08:09:34.976Z,12.4
2018-05-17T08:10:44.989Z,12.45
2018-05-17T08:11:54.781Z,12.47
2018-05-17T08:13:04.794Z,12.51
2018-05-17T08:14:14.542Z,12.5
2018-05-17T08:15:24.562Z,12.62
2018-05-17T08:16:34.051Z,12.72
2018-05-17T08:17:43.796Z,12.73
2018-05-17T08:18:53.541Z,12.66
2018-05-17T08:20:03.289Z,12.36
2018-05-17T08:21:12.769Z,12.4
2018-05-17T08:22:22.518Z,12.35
2018-05-17T08:23:32.535Z,12.36
2018-05-17T08:24:42.551Z,12.43
2018-05-17T08:25:52.295Z,12.43
2018-05-17T08:27:02.316Z,12.44
2018-05-17T08:28:12.065Z,12.51
2018-05-17T08:29:21.810Z,12.62
2018-05-17T08:30:31.295Z,12.83
2018-05-17T08:31:41.312Z,12.91
2018-05-17T08:32:50.798Z,12.94
2018-05-17T08:34:00.813Z,13.09
2018-05-17T08:35:10.559Z,13.17
2018-05-17T08:36:20.988Z,13.24
2018-05-17T08:37:31.519Z,13.24
2018-05-17T08:38:41.280Z,13.45
2018-05-17T08:39:51.031Z,13.5
2018-05-17T08:41:00.514Z,13.49
2018-05-17T08:42:10.532Z,13.4
2018-05-17T08:43:20.565Z,13.27
2018-05-17T08:44:30.309Z,13.21
2018-05-17T08:45:40.156Z,13.24
2018-05-17T08:46:50.462Z,13.26
2018-05-17T08:48:00.208Z,13.28
2018-05-17T08:49:09.963Z,13.17
2018-05-17T08:50:19.713Z,12.9
2018-05-17T08:51:29.194Z,12.87
2018-05-17T08:52:39.309Z,13.02
2018-05-17T08:53:48.524Z,13.17
2018-05-17T08:54:58.271Z,13.24
2018-05-17T08:56:08.033Z,13.24
2018-05-17T08:57:17.515Z,13.21
2018-05-17T08:58:27.259Z,13.45
2018-05-17T08:59:37.092Z,13.24
2018-05-17T09:00:46.713Z,13.28
2018-05-17T09:01:56.725Z,13.3
2018-05-17T09:03:06.217Z,13.31
2018-05-17T09:04:16.328Z,13.37
2018-05-17T09:05:26.342Z,13.42
2018-05-17T09:06:36.095Z,13.43
2018-05-17T09:07:46.120Z,13.47
2018-05-17T09:08:55.605Z,13.43
2018-05-17T09:10:05.114Z,13.21
2018-05-17T09:11:14.860Z,13.12
2018-05-17T09:12:24.339Z,12.98
2018-05-17T09:13:34.597Z,12.45
2018-05-17T09:14:44.469Z,11.86
2018-05-17T09:15:54.000Z,11.62
2018-05-17T09:17:04.024Z,11.16
2018-05-17T09:18:13.768Z,11.13
2018-05-17T09:19:23.790Z,11.13
2018-05-17T09:20:33.151Z,11.04
2018-05-17T09:21:42.909Z,11.01
2018-05-17T09:22:52.928Z,11
2018-05-17T09:24:02.678Z,10.98
2018-05-17T09:25:12.689Z,11.02
2018-05-17T09:26:22.437Z,10.84
2018-05-17T09:27:31.974Z,10.83
2018-05-17T09:28:41.990Z,10.82
2018-05-17T09:29:51.740Z,10.77
2018-05-17T09:31:01.504Z,10.58
2018-05-17T09:32:11.515Z,10.72
2018-05-17T09:33:21.345Z,10.92
2018-05-17T09:34:31.095Z,11.04
2018-05-17T09:35:41.238Z,11.04
2018-05-17T09:36:51.075Z,11.07
2018-05-17T09:38:01.088Z,11.02
2018-05-17T09:39:10.861Z,10.89
2018-05-17T09:40:20.893Z,11.01
2018-05-17T09:41:30.761Z,11.15
2018-05-17T09:42:40.326Z,11.2
2018-05-17T09:43:50.149Z,11.43
2018-05-17T09:44:59.890Z,11.45
2018-05-17T09:46:09.718Z,11.51
2018-05-17T09:47:19.735Z,11.48
2018-05-17T09:48:29.743Z,11.62
2018-05-17T09:49:39.757Z,11.65
2018-05-17T09:50:49.766Z,11.76
2018-05-17T09:51:59.507Z,11.89
2018-05-17T09:53:09.538Z,12.12
2018-05-17T09:54:19.286Z,12.17
2018-05-17T09:55:29.305Z,12.36
2018-05-17T09:56:39.401Z,12.39
2018-05-17T09:57:49.423Z,12.39
2018-05-17T09:58:59.167Z,12.39
2018-05-17T10:00:09.179Z,12.3
2018-05-17T10:01:19.192Z,12.15
2018-05-17T10:02:29.208Z,12.08
2018-05-17T10:03:39.232Z,12.14
2018-05-17T10:04:48.977Z,11.99
2018-05-17T10:05:58.996Z,12.05
2018-05-17T10:07:08.207Z,11.89
2018-05-17T10:08:18.002Z,11.81
2018-05-17T10:09:28.017Z,11.88
2018-05-17T10:10:38.034Z,11.77
2018-05-17T10:11:48.048Z,11.71
2018-05-17T10:12:58.071Z,11.63
2018-05-17T10:14:08.095Z,11.65
2018-05-17T10:15:17.567Z,11.56
2018-05-17T10:16:27.601Z,11.53
2018-05-17T10:17:37.353Z,11.7
2018-05-17T10:18:47.369Z,11.93
2018-05-17T10:19:57.108Z,11.89
2018-05-17T10:21:06.592Z,12.14
2018-05-17T10:22:16.342Z,12.11
2018-05-17T10:23:26.092Z,12.15
2018-05-17T10:24:36.098Z,12.28
2018-05-17T10:25:45.851Z,12.35
2018-05-17T10:26:55.594Z,12.44
2018-05-17T10:28:05.339Z,12.48
2018-05-17T10:29:14.551Z,12.7
2018-05-17T10:30:24.034Z,12.86
2018-05-17T10:31:33.789Z,12.9
2018-05-17T10:32:43.807Z,13.12
2018-05-17T10:33:53.557Z,13.26
2018-05-17T10:35:03.570Z,13.3
2018-05-17T10:36:13.320Z,13.52
2018-05-17T10:37:23.362Z,13.58
2018-05-17T10:38:32.842Z,13.67
2018-05-17T10:39:42.603Z,13.86
2018-05-17T10:40:52.615Z,13.89
2018-05-17T10:42:02.630Z,13.98
2018-05-17T10:43:12.663Z,14.13
2018-05-17T10:44:22.409Z,14.18
2018-05-17T10:45:32.161Z,14.12
2018-05-17T10:46:42.035Z,14.16
2018-05-17T10:47:51.779Z,14.15
2018-05-17T10:49:01.741Z,13.83
2018-05-17T10:50:12.028Z,13.61
2018-05-17T10:51:22.040Z,13.47
2018-05-17T10:52:32.050Z,13.36
2018-05-17T10:53:41.800Z,13.49
2018-05-17T10:54:51.290Z,13.26
2018-05-17T10:56:01.305Z,13.17
2018-05-17T10:57:11.317Z,13.36
2018-05-17T10:58:21.063Z,13.26
2018-05-17T10:59:30.816Z,13.4
2018-05-17T11:00:40.565Z,13.52
2018-05-17T11:01:50.582Z,13.46
2018-05-17T11:03:00.613Z,13.12
2018-05-17T11:04:10.647Z,12.93
2018-05-17T11:05:20.658Z,13.17
2018-05-17T11:06:30.667Z,13.21
2018-05-17T11:07:40.690Z,13.26
2018-05-17T11:08:50.440Z,13.27
2018-05-17T11:10:00.447Z,13.36
2018-05-17T11:11:10.194Z,13.49
2018-05-17T11:12:20.266Z,13.49
2018-05-17T11:13:30.310Z,13.58
2018-05-17T11:14:40.327Z,13.65
2018-05-17T11:15:50.160Z,13.87
2018-05-17T11:16:59.909Z,13.95
2018-05-17T11:18:09.387Z,14.18
2018-05-17T11:19:19.412Z,14.28
2018-05-17T11:20:29.174Z,13.98
2018-05-17T11:21:39.202Z,14.11
2018-05-17T11:22:48.682Z,14.3
2018-05-17T11:23:58.707Z,14.58
2018-05-17T11:25:08.187Z,14.86
2018-05-17T11:26:17.934Z,15.39
2018-05-17T11:27:27.680Z,15.8
2018-05-17T11:28:36.891Z,16.17
2018-05-17T11:29:46.645Z,16.73
2018-05-17T11:30:56.668Z,17.32
2018-05-17T11:32:06.754Z,17.84
2018-05-17T11:33:16.425Z,18.48
2018-05-17T11:34:26.173Z,19.05
2018-05-17T11:35:35.939Z,19.72
2018-05-17T11:36:45.690Z,20.32
2018-05-17T11:37:55.710Z,20.77
2018-05-17T11:39:05.729Z,21.43
2018-05-17T11:40:15.216Z,21.92
2018-05-17T11:41:25.246Z,22.46
2018-05-17T11:42:35.272Z,22.52
2018-05-17T11:43:45.333Z,22.83
2018-05-17T11:44:55.087Z,21.81
2018-05-17T11:46:05.104Z,21.14
2018-05-17T11:47:14.864Z,20.83
2018-05-17T11:48:25.079Z,20.48
2018-05-17T11:49:35.520Z,20.33
2018-05-17T11:50:45.013Z,20.52
2018-05-17T11:51:54.271Z,20.64
2018-05-17T11:53:04.298Z,21.11
2018-05-17T11:54:13.522Z,21.54
2018-05-17T11:55:23.289Z,22.04
2018-05-17T11:56:33.313Z,22.26
2018-05-17T11:57:43.344Z,22.61
2018-05-17T11:58:53.205Z,22.93
2018-05-17T12:00:03.268Z,23.7
2018-05-17T12:01:13.033Z,23.44
2018-05-17T12:02:23.058Z,23.33
2018-05-17T12:03:32.578Z,22.99
2018-05-17T12:04:42.180Z,23.69
2018-05-17T12:05:52.208Z,24.09
2018-05-17T12:07:01.968Z,24.47
2018-05-17T12:08:11.469Z,24.55
2018-05-17T12:09:21.234Z,25.11
2018-05-17T12:10:31.313Z,25.73
2018-05-17T12:11:41.343Z,26.41
2018-05-17T12:12:51.376Z,26.79
2018-05-17T12:14:01.146Z,27.37
2018-05-17T12:15:10.914Z,27.93
2018-05-17T12:16:20.697Z,28.23
2018-05-17T12:17:30.737Z,28.56
2018-05-17T12:18:40.506Z,28.94
2018-05-17T12:19:50.371Z,29.28
2018-05-17T12:20:59.866Z,29.27
2018-05-17T12:22:09.364Z,29
2018-05-17T12:23:19.407Z,29.03
2018-05-17T12:24:28.907Z,28.64
2018-05-17T12:25:38.672Z,28.57
2018-05-17T12:26:48.435Z,28.75
2018-05-17T12:27:58.488Z,28.96
2018-05-17T12:29:08.525Z,29.3
2018-05-17T12:30:18.300Z,29.4
2018-05-17T12:31:28.082Z,29.05
2018-05-17T12:32:37.840Z,28.62
2018-05-17T12:33:47.978Z,28.2
2018-05-17T12:34:57.207Z,28.45
2018-05-17T12:36:07.260Z,28.89
2018-05-17T12:37:17.461Z,29.07
2018-05-17T12:38:27.556Z,29.4
2018-05-17T12:39:37.597Z,29.84
2018-05-17T12:40:47.628Z,30.17
2018-05-17T12:41:57.672Z,30.65
2018-05-17T12:43:07.447Z,30.88
2018-05-17T12:44:17.219Z,30.51
2018-05-17T12:45:27.252Z,30.81
2018-05-17T12:46:37.282Z,31.28
2018-05-17T12:47:47.314Z,31.66
2018-05-17T12:48:57.083Z,31.36
2018-05-17T12:50:06.865Z,30.73
2018-05-17T12:51:16.988Z,30.55
2018-05-17T12:52:26.756Z,30.61
2018-05-17T12:53:36.525Z,30.85
2018-05-17T12:54:46.300Z,30.48
2018-05-17T12:55:56.063Z,30.52
2018-05-17T12:57:05.287Z,30.63
2018-05-17T12:58:15.052Z,29.21
2018-05-17T12:59:25.089Z,28.25
2018-05-17T13:00:35.134Z,27.81
2018-05-17T13:01:45.199Z,28.01
2018-05-17T13:02:55.249Z,28.46
2018-05-17T13:04:05.014Z,28.84
2018-05-17T13:05:14.513Z,29.37
2018-05-17T13:06:24.283Z,28.97
2018-05-17T13:07:34.316Z,28.67
2018-05-17T13:08:43.814Z,29.3
2018-05-17T13:09:53.853Z,29.57
2018-05-17T13:11:03.632Z,29.52
2018-05-17T13:12:13.763Z,29.84
2018-05-17T13:13:23.525Z,30.39
2018-05-17T13:14:33.294Z,30.81
2018-05-17T13:15:43.060Z,30.76
2018-05-17T13:16:52.829Z,30.26
2018-05-17T13:18:02.592Z,30.23
2018-05-17T13:19:12.364Z,30.46
2018-05-17T13:20:22.405Z,30.63
2018-05-17T13:21:32.171Z,31.08
2018-05-17T13:22:42.207Z,31.67
2018-05-17T13:23:52.237Z,31.81
2018-05-17T13:25:02.091Z,31.63
2018-05-17T13:26:11.858Z,31.23
2018-05-17T13:27:21.903Z,31.79
2018-05-17T13:28:31.682Z,32.07
2018-05-17T13:29:41.719Z,32.29
2018-05-17T13:30:51.840Z,32.45
2018-05-17T13:32:01.603Z,32.44
2018-05-17T13:33:11.373Z,32.29
2018-05-17T13:34:21.406Z,32.2
2018-05-17T13:35:31.186Z,32.05
2018-05-17T13:36:41.222Z,31.6
2018-05-17T13:37:51.064Z,31.47
2018-05-17T13:39:00.852Z,31.57
2018-05-17T13:40:10.885Z,31.67
2018-05-17T13:41:20.383Z,31.95
2018-05-17T13:42:29.893Z,31.54
2018-05-17T13:43:39.663Z,32.07
2018-05-17T13:44:49.781Z,32.41
2018-05-17T13:45:59.838Z,31.45
2018-05-17T13:47:09.661Z,30.03
2018-05-17T13:48:19.700Z,30.52
2018-05-17T13:49:29.475Z,30.61
2018-05-17T13:50:38.983Z,31.25
2018-05-17T13:51:48.758Z,31.7
2018-05-17T13:52:58.528Z,32.31
2018-05-17T13:54:08.029Z,32.71
2018-05-17T13:55:18.067Z,32.93
2018-05-17T13:56:27.832Z,33.29
2018-05-17T13:57:37.874Z,33.39
2018-05-17T13:58:47.663Z,33.98
2018-05-17T13:59:57.705Z,34.32
2018-05-17T14:01:07.528Z,34.53
2018-05-17T14:02:17.366Z,34.56
2018-05-17T14:03:27.781Z,34.38
2018-05-17T14:04:37.831Z,34.31
2018-05-17T14:05:47.880Z,34.6
2018-05-17T14:06:57.725Z,35.04
2018-05-17T14:08:07.226Z,35.34
2018-05-17T14:09:16.993Z,35.52
2018-05-17T14:10:27.035Z,35.16
2018-05-17T14:11:36.540Z,34.88
2018-05-17T14:12:46.929Z,33.16
2018-05-17T14:13:56.911Z,32.54
2018-05-17T14:15:06.719Z,32.91
2018-05-17T14:16:16.883Z,33.05
2018-05-17T14:17:26.993Z,33.67
2018-05-17T14:18:36.495Z,34.29
2018-05-17T14:19:46.532Z,34.55
2018-05-17T14:20:56.571Z,35.13
2018-05-17T14:22:05.804Z,35.5
2018-05-17T14:23:16.019Z,35.71
2018-05-17T14:24:25.834Z,35.91
2018-05-17T14:25:35.869Z,36.39
2018-05-17T14:26:45.910Z,36.63
2018-05-17T14:27:55.945Z,36.38
2018-05-17T14:29:05.715Z,35.72
2018-05-17T14:30:15.496Z,36.11
2018-05-17T14:31:25.539Z,36.48
2018-05-17T14:32:35.572Z,36.06
2018-05-17T14:33:45.073Z,35.52
2018-05-17T14:34:54.598Z,34.89
2018-05-17T14:36:04.105Z,35.34
2018-05-17T14:37:13.872Z,35.61
2018-05-17T14:38:23.911Z,35
2018-05-17T14:39:33.953Z,34.93
2018-05-17T14:40:43.811Z,35.3
2018-05-17T14:41:53.955Z,35.69
2018-05-17T14:43:03.721Z,34.98
2018-05-17T14:44:13.489Z,34.71
2018-05-17T14:45:23.525Z,34.06
2018-05-17T14:46:33.578Z,33.12
2018-05-17T14:47:43.617Z,32.61
2018-05-17T14:48:53.127Z,31.02
2018-05-17T14:50:02.900Z,30.59
2018-05-17T14:51:12.407Z,30.59
2018-05-17T14:52:22.452Z,31.05
2018-05-17T14:53:32.559Z,30.78
2018-05-17T14:54:42.599Z,31.39
2018-05-17T14:55:52.230Z,31.39
2018-05-17T14:57:02.454Z,31.66
2018-05-17T14:58:11.951Z,32.22
2018-05-17T14:59:21.448Z,32.85
2018-05-17T15:00:31.492Z,33.35
2018-05-17T15:01:41.544Z,33.77
2018-05-17T15:02:51.666Z,33.98
2018-05-17T15:04:01.703Z,34.56
2018-05-17T15:05:10.937Z,35.15
2018-05-17T15:06:20.708Z,35.49
2018-05-17T15:07:30.747Z,35.93
2018-05-17T15:08:41.344Z,36.29
2018-05-17T15:09:51.931Z,36.48
2018-05-17T15:11:04.220Z,36.54
2018-05-17T15:12:14.291Z,36.89
2018-05-17T15:13:24.078Z,37.21
2018-05-17T15:14:34.108Z,37.38
2018-05-17T15:15:43.884Z,37.64
2018-05-17T15:16:53.919Z,37.86
2018-05-17T15:18:03.687Z,37.82
2018-05-17T15:19:13.729Z,37.92